sensor_id;sensor_type;location;lat;lon;timestamp;P1;durP1;ratioP1;P2;durP2;ratioP2
63050;SDS011;49136;47.416;19.402;2022-10-19T00:01:21;14.85;;;7.43;;
63050;SDS011;49136;47.416;19.402;2022-10-19T00:03:49;19.92;;;9.38;;
63050;SDS011;49136;47.416;19.402;2022-10-19T00:08:48;18.15;;;9.25;;
63050;SDS011;49136;47.416;19.402;2022-10-19T00:11:14;15.02;;;7.03;;
63050;SDS011;49136;47.416;19.402;2022-10-19T00:13:39;19.27;;;8.45;;
63050;SDS011;49136;47.416;19.402;2022-10-19T00:16:09;16.58;;;8.35;;
63050;SDS011;49136;47.416;19.402;2022-10-19T00:18:36;21.10;;;8.50;;
63050;SDS011;49136;47.416;19.402;2022-10-19T00:21:06;18.13;;;8.63;;
63050;SDS011;49136;47.416;19.402;2022-10-19T00:23:33;18.23;;;9.27;;
63050;SDS011;49136;47.416;19.402;2022-10-19T00:25:59;21.73;;;9.20;;
63050;SDS011;49136;47.416;19.402;2022-10-19T00:28:25;17.88;;;7.93;;
63050;SDS011;49136;47.416;19.402;2022-10-19T00:30:51;14.00;;;7.45;;
63050;SDS011;49136;47.416;19.402;2022-10-19T00:33:16;21.50;;;9.95;;
63050;SDS011;49136;47.416;19.402;2022-10-19T00:35:45;18.85;;;8.23;;
63050;SDS011;49136;47.416;19.402;2022-10-19T00:38:16;17.02;;;8.45;;
63050;SDS011;49136;47.416;19.402;2022-10-19T00:40:42;19.70;;;8.38;;
63050;SDS011;49136;47.416;19.402;2022-10-19T00:43:10;16.42;;;7.43;;
63050;SDS011;49136;47.416;19.402;2022-10-19T00:45:38;14.45;;;7.63;;
63050;SDS011;49136;47.416;19.402;2022-10-19T00:48:04;20.27;;;8.65;;
63050;SDS011;49136;47.416;19.402;2022-10-19T00:50:30;19.00;;;9.00;;
63050;SDS011;49136;47.416;19.402;2022-10-19T00:52:56;17.75;;;8.07;;
63050;SDS011;49136;47.416;19.402;2022-10-19T00:55:21;18.55;;;8.45;;
63050;SDS011;49136;47.416;19.402;2022-10-19T00:57:47;18.58;;;7.65;;
63050;SDS011;49136;47.416;19.402;2022-10-19T01:00:12;19.05;;;8.10;;
63050;SDS011;49136;47.416;19.402;2022-10-19T01:02:38;20.60;;;8.98;;
63050;SDS011;49136;47.416;19.402;2022-10-19T01:05:03;17.40;;;8.88;;
63050;SDS011;49136;47.416;19.402;2022-10-19T01:07:29;14.35;;;7.75;;
63050;SDS011;49136;47.416;19.402;2022-10-19T01:09:54;19.77;;;8.38;;
63050;SDS011;49136;47.416;19.402;2022-10-19T01:27:10;15.85;;;6.88;;
63050;SDS011;49136;47.416;19.402;2022-10-19T01:30:10;21.58;;;8.35;;
63050;SDS011;49136;47.416;19.402;2022-10-19T01:35:22;23.88;;;9.93;;
63050;SDS011;49136;47.416;19.402;2022-10-19T01:40:28;18.83;;;9.40;;
63050;SDS011;49136;47.416;19.402;2022-10-19T01:43:26;19.30;;;8.75;;
63050;SDS011;49136;47.416;19.402;2022-10-19T01:48:50;23.20;;;9.75;;
63050;SDS011;49136;47.416;19.402;2022-10-19T01:51:22;19.35;;;9.45;;
63050;SDS011;49136;47.416;19.402;2022-10-19T01:54:00;24.27;;;8.40;;
63050;SDS011;49136;47.416;19.402;2022-10-19T01:56:29;24.45;;;10.63;;
63050;SDS011;49136;47.416;19.402;2022-10-19T01:58:56;19.33;;;9.30;;
63050;SDS011;49136;47.416;19.402;2022-10-19T02:01:25;23.70;;;8.80;;
63050;SDS011;49136;47.416;19.402;2022-10-19T02:03:53;21.88;;;8.57;;
63050;SDS011;49136;47.416;19.402;2022-10-19T02:06:21;23.33;;;10.15;;
63050;SDS011;49136;47.416;19.402;2022-10-19T02:08:49;20.17;;;8.18;;
63050;SDS011;49136;47.416;19.402;2022-10-19T02:11:16;17.00;;;8.65;;
63050;SDS011;49136;47.416;19.402;2022-10-19T02:13:44;14.80;;;8.50;;
63050;SDS011;49136;47.416;19.402;2022-10-19T02:19:13;19.25;;;9.07;;
63050;SDS011;49136;47.416;19.402;2022-10-19T02:21:40;18.35;;;8.65;;
63050;SDS011;49136;47.416;19.402;2022-10-19T02:24:05;20.83;;;8.63;;
63050;SDS011;49136;47.416;19.402;2022-10-19T02:26:31;21.30;;;10.73;;
63050;SDS011;49136;47.416;19.402;2022-10-19T02:28:56;25.80;;;9.98;;
63050;SDS011;49136;47.416;19.402;2022-10-19T02:31:22;19.08;;;9.52;;
63050;SDS011;49136;47.416;19.402;2022-10-19T02:33:49;22.92;;;9.25;;
63050;SDS011;49136;47.416;19.402;2022-10-19T02:36:15;16.80;;;8.48;;
63050;SDS011;49136;47.416;19.402;2022-10-19T02:38:41;17.98;;;8.40;;
63050;SDS011;49136;47.416;19.402;2022-10-19T02:43:40;21.80;;;9.10;;
63050;SDS011;49136;47.416;19.402;2022-10-19T02:49:00;20.73;;;10.02;;
63050;SDS011;49136;47.416;19.402;2022-10-19T02:51:28;24.65;;;10.02;;
63050;SDS011;49136;47.416;19.402;2022-10-19T02:53:56;19.88;;;10.52;;
63050;SDS011;49136;47.416;19.402;2022-10-19T02:56:22;23.80;;;9.88;;
63050;SDS011;49136;47.416;19.402;2022-10-19T02:58:47;19.85;;;10.30;;
63050;SDS011;49136;47.416;19.402;2022-10-19T03:01:12;18.90;;;10.48;;
63050;SDS011;49136;47.416;19.402;2022-10-19T03:03:38;24.45;;;9.65;;
63050;SDS011;49136;47.416;19.402;2022-10-19T03:06:04;20.10;;;9.38;;
63050;SDS011;49136;47.416;19.402;2022-10-19T03:08:29;22.83;;;10.88;;
63050;SDS011;49136;47.416;19.402;2022-10-19T03:10:57;24.88;;;10.63;;
63050;SDS011;49136;47.416;19.402;2022-10-19T03:13:23;30.98;;;11.07;;
63050;SDS011;49136;47.416;19.402;2022-10-19T03:15:48;26.80;;;11.23;;
63050;SDS011;49136;47.416;19.402;2022-10-19T03:18:14;28.40;;;11.05;;
63050;SDS011;49136;47.416;19.402;2022-10-19T03:20:39;30.33;;;13.60;;
63050;SDS011;49136;47.416;19.402;2022-10-19T03:23:05;33.20;;;13.27;;
63050;SDS011;49136;47.416;19.402;2022-10-19T03:25:30;32.50;;;12.93;;
63050;SDS011;49136;47.416;19.402;2022-10-19T03:27:56;33.55;;;13.52;;
63050;SDS011;49136;47.416;19.402;2022-10-19T03:30:21;26.55;;;12.60;;
63050;SDS011;49136;47.416;19.402;2022-10-19T03:32:46;31.80;;;13.23;;
63050;SDS011;49136;47.416;19.402;2022-10-19T03:35:12;33.50;;;13.55;;
63050;SDS011;49136;47.416;19.402;2022-10-19T03:37:37;34.53;;;13.68;;
63050;SDS011;49136;47.416;19.402;2022-10-19T03:40:02;32.10;;;13.98;;
63050;SDS011;49136;47.416;19.402;2022-10-19T03:42:28;31.63;;;12.98;;
63050;SDS011;49136;47.416;19.402;2022-10-19T03:44:54;30.05;;;13.07;;
63050;SDS011;49136;47.416;19.402;2022-10-19T03:47:19;26.38;;;11.23;;
63050;SDS011;49136;47.416;19.402;2022-10-19T03:49:44;29.08;;;12.35;;
63050;SDS011;49136;47.416;19.402;2022-10-19T03:52:10;24.95;;;12.73;;
63050;SDS011;49136;47.416;19.402;2022-10-19T03:54:35;30.38;;;12.70;;
63050;SDS011;49136;47.416;19.402;2022-10-19T03:57:01;30.70;;;14.15;;
63050;SDS011;49136;47.416;19.402;2022-10-19T03:59:26;28.85;;;12.73;;
63050;SDS011;49136;47.416;19.402;2022-10-19T04:01:51;31.90;;;13.45;;
63050;SDS011;49136;47.416;19.402;2022-10-19T04:04:17;33.45;;;14.27;;
63050;SDS011;49136;47.416;19.402;2022-10-19T04:06:44;32.03;;;13.52;;
63050;SDS011;49136;47.416;19.402;2022-10-19T04:09:13;38.13;;;14.02;;
63050;SDS011;49136;47.416;19.402;2022-10-19T04:11:41;26.38;;;11.95;;
63050;SDS011;49136;47.416;19.402;2022-10-19T04:14:07;39.30;;;13.18;;
63050;SDS011;49136;47.416;19.402;2022-10-19T04:16:34;28.77;;;12.82;;
63050;SDS011;49136;47.416;19.402;2022-10-19T04:19:00;27.73;;;13.45;;
63050;SDS011;49136;47.416;19.402;2022-10-19T04:21:29;34.47;;;12.57;;
63050;SDS011;49136;47.416;19.402;2022-10-19T04:24:03;36.80;;;13.47;;
63050;SDS011;49136;47.416;19.402;2022-10-19T04:26:29;32.47;;;13.35;;
63050;SDS011;49136;47.416;19.402;2022-10-19T04:28:56;35.78;;;15.07;;
63050;SDS011;49136;47.416;19.402;2022-10-19T04:31:22;38.75;;;13.25;;
63050;SDS011;49136;47.416;19.402;2022-10-19T04:33:48;36.40;;;15.20;;
63050;SDS011;49136;47.416;19.402;2022-10-19T04:36:14;27.48;;;12.55;;
63050;SDS011;49136;47.416;19.402;2022-10-19T04:38:39;35.67;;;14.52;;
63050;SDS011;49136;47.416;19.402;2022-10-19T04:41:05;27.95;;;12.30;;
63050;SDS011;49136;47.416;19.402;2022-10-19T04:43:35;24.50;;;11.07;;
63050;SDS011;49136;47.416;19.402;2022-10-19T04:46:11;29.95;;;12.63;;
63050;SDS011;49136;47.416;19.402;2022-10-19T04:48:41;30.13;;;13.88;;
63050;SDS011;49136;47.416;19.402;2022-10-19T04:51:08;26.92;;;11.43;;
63050;SDS011;49136;47.416;19.402;2022-10-19T04:53:33;25.88;;;12.77;;
63050;SDS011;49136;47.416;19.402;2022-10-19T04:56:03;32.22;;;13.13;;
63050;SDS011;49136;47.416;19.402;2022-10-19T04:58:29;36.42;;;12.88;;
63050;SDS011;49136;47.416;19.402;2022-10-19T05:00:55;30.05;;;12.23;;
63050;SDS011;49136;47.416;19.402;2022-10-19T05:03:20;29.65;;;11.32;;
63050;SDS011;49136;47.416;19.402;2022-10-19T05:05:45;39.25;;;13.18;;
63050;SDS011;49136;47.416;19.402;2022-10-19T05:08:11;31.90;;;13.55;;
63050;SDS011;49136;47.416;19.402;2022-10-19T05:10:36;27.60;;;12.40;;
63050;SDS011;49136;47.416;19.402;2022-10-19T05:13:02;28.95;;;12.48;;
63050;SDS011;49136;47.416;19.402;2022-10-19T05:15:28;37.70;;;15.80;;
63050;SDS011;49136;47.416;19.402;2022-10-19T05:17:54;33.60;;;15.90;;
63050;SDS011;49136;47.416;19.402;2022-10-19T05:20:19;35.63;;;15.73;;
63050;SDS011;49136;47.416;19.402;2022-10-19T05:22:45;49.53;;;16.52;;
63050;SDS011;49136;47.416;19.402;2022-10-19T05:25:10;50.28;;;18.80;;
63050;SDS011;49136;47.416;19.402;2022-10-19T05:27:35;41.28;;;17.45;;
63050;SDS011;49136;47.416;19.402;2022-10-19T05:30:01;47.35;;;16.70;;
63050;SDS011;49136;47.416;19.402;2022-10-19T05:32:26;40.85;;;16.23;;
63050;SDS011;49136;47.416;19.402;2022-10-19T05:34:52;31.63;;;15.73;;
63050;SDS011;49136;47.416;19.402;2022-10-19T05:37:17;40.58;;;16.05;;
63050;SDS011;49136;47.416;19.402;2022-10-19T05:39:43;41.90;;;16.40;;
63050;SDS011;49136;47.416;19.402;2022-10-19T05:42:08;42.28;;;18.05;;
63050;SDS011;49136;47.416;19.402;2022-10-19T05:44:34;35.10;;;16.02;;
63050;SDS011;49136;47.416;19.402;2022-10-19T05:47:00;30.55;;;14.18;;
63050;SDS011;49136;47.416;19.402;2022-10-19T05:49:26;36.83;;;16.63;;
63050;SDS011;49136;47.416;19.402;2022-10-19T05:51:51;38.33;;;15.63;;
63050;SDS011;49136;47.416;19.402;2022-10-19T05:54:17;30.77;;;15.68;;
63050;SDS011;49136;47.416;19.402;2022-10-19T05:56:43;44.92;;;14.93;;
63050;SDS011;49136;47.416;19.402;2022-10-19T05:59:09;50.47;;;16.80;;
63050;SDS011;49136;47.416;19.402;2022-10-19T06:01:40;41.38;;;16.40;;
63050;SDS011;49136;47.416;19.402;2022-10-19T06:04:05;37.35;;;14.80;;
63050;SDS011;49136;47.416;19.402;2022-10-19T06:06:31;39.60;;;17.42;;
63050;SDS011;49136;47.416;19.402;2022-10-19T06:08:57;37.78;;;15.57;;
63050;SDS011;49136;47.416;19.402;2022-10-19T06:11:27;40.33;;;15.18;;
63050;SDS011;49136;47.416;19.402;2022-10-19T06:13:58;34.15;;;14.73;;
63050;SDS011;49136;47.416;19.402;2022-10-19T06:16:25;35.40;;;15.30;;
63050;SDS011;49136;47.416;19.402;2022-10-19T06:18:51;35.20;;;15.48;;
63050;SDS011;49136;47.416;19.402;2022-10-19T06:21:19;32.92;;;15.02;;
63050;SDS011;49136;47.416;19.402;2022-10-19T06:23:53;36.67;;;14.75;;
63050;SDS011;49136;47.416;19.402;2022-10-19T06:26:20;31.08;;;14.55;;
63050;SDS011;49136;47.416;19.402;2022-10-19T06:28:47;28.38;;;12.23;;
63050;SDS011;49136;47.416;19.402;2022-10-19T06:31:13;29.77;;;12.95;;
63050;SDS011;49136;47.416;19.402;2022-10-19T06:33:39;30.55;;;12.05;;
63050;SDS011;49136;47.416;19.402;2022-10-19T06:38:35;24.65;;;9.43;;
63050;SDS011;49136;47.416;19.402;2022-10-19T06:41:00;22.20;;;10.25;;
63050;SDS011;49136;47.416;19.402;2022-10-19T06:43:26;27.23;;;10.15;;
63050;SDS011;49136;47.416;19.402;2022-10-19T06:45:52;19.77;;;9.85;;
63050;SDS011;49136;47.416;19.402;2022-10-19T06:48:17;18.60;;;8.98;;
63050;SDS011;49136;47.416;19.402;2022-10-19T06:50:42;29.98;;;8.88;;
63050;SDS011;49136;47.416;19.402;2022-10-19T06:53:08;20.50;;;8.40;;
63050;SDS011;49136;47.416;19.402;2022-10-19T06:55:34;19.65;;;8.93;;
63050;SDS011;49136;47.416;19.402;2022-10-19T06:58:00;16.08;;;7.60;;
63050;SDS011;49136;47.416;19.402;2022-10-19T07:00:26;15.45;;;7.40;;
63050;SDS011;49136;47.416;19.402;2022-10-19T07:02:52;15.45;;;7.32;;
63050;SDS011;49136;47.416;19.402;2022-10-19T07:05:18;12.73;;;6.47;;
63050;SDS011;49136;47.416;19.402;2022-10-19T07:07:43;15.93;;;6.45;;
63050;SDS011;49136;47.416;19.402;2022-10-19T07:10:09;23.88;;;7.70;;
63050;SDS011;49136;47.416;19.402;2022-10-19T07:12:35;13.23;;;6.65;;
63050;SDS011;49136;47.416;19.402;2022-10-19T07:15:00;17.52;;;7.95;;
63050;SDS011;49136;47.416;19.402;2022-10-19T07:17:26;17.27;;;6.78;;
63050;SDS011;49136;47.416;19.402;2022-10-19T07:19:51;13.63;;;7.45;;
63050;SDS011;49136;47.416;19.402;2022-10-19T07:22:17;13.88;;;5.75;;
63050;SDS011;49136;47.416;19.402;2022-10-19T07:24:42;13.32;;;7.05;;
63050;SDS011;49136;47.416;19.402;2022-10-19T07:27:07;11.10;;;6.47;;
63050;SDS011;49136;47.416;19.402;2022-10-19T07:29:33;12.63;;;7.20;;
63050;SDS011;49136;47.416;19.402;2022-10-19T07:31:58;19.52;;;6.88;;
63050;SDS011;49136;47.416;19.402;2022-10-19T07:34:23;16.88;;;6.32;;
63050;SDS011;49136;47.416;19.402;2022-10-19T07:36:49;16.83;;;7.32;;
63050;SDS011;49136;47.416;19.402;2022-10-19T07:39:14;14.95;;;6.97;;
63050;SDS011;49136;47.416;19.402;2022-10-19T07:41:43;11.55;;;5.78;;
63050;SDS011;49136;47.416;19.402;2022-10-19T07:44:09;10.77;;;6.45;;
63050;SDS011;49136;47.416;19.402;2022-10-19T07:46:35;14.77;;;7.70;;
63050;SDS011;49136;47.416;19.402;2022-10-19T07:49:02;12.35;;;6.38;;
63050;SDS011;49136;47.416;19.402;2022-10-19T07:51:30;11.07;;;5.68;;
63050;SDS011;49136;47.416;19.402;2022-10-19T07:53:56;10.25;;;5.28;;
63050;SDS011;49136;47.416;19.402;2022-10-19T07:56:23;13.43;;;6.22;;
63050;SDS011;49136;47.416;19.402;2022-10-19T07:58:50;12.38;;;5.80;;
63050;SDS011;49136;47.416;19.402;2022-10-19T08:01:21;13.85;;;5.53;;
63050;SDS011;49136;47.416;19.402;2022-10-19T08:03:50;9.23;;;5.43;;
63050;SDS011;49136;47.416;19.402;2022-10-19T08:06:17;9.48;;;5.35;;
63050;SDS011;49136;47.416;19.402;2022-10-19T08:08:43;9.88;;;5.68;;
63050;SDS011;49136;47.416;19.402;2022-10-19T08:13:43;9.77;;;5.35;;
63050;SDS011;49136;47.416;19.402;2022-10-19T08:16:22;9.85;;;5.28;;
63050;SDS011;49136;47.416;19.402;2022-10-19T08:18:59;10.27;;;4.85;;
63050;SDS011;49136;47.416;19.402;2022-10-19T08:21:25;8.48;;;5.07;;
63050;SDS011;49136;47.416;19.402;2022-10-19T08:23:52;11.57;;;5.25;;
63050;SDS011;49136;47.416;19.402;2022-10-19T08:26:18;7.45;;;4.65;;
63050;SDS011;49136;47.416;19.402;2022-10-19T08:28:44;11.80;;;5.95;;
63050;SDS011;49136;47.416;19.402;2022-10-19T08:31:13;9.70;;;5.53;;
63050;SDS011;49136;47.416;19.402;2022-10-19T08:33:41;11.35;;;5.50;;
63050;SDS011;49136;47.416;19.402;2022-10-19T08:36:08;8.82;;;5.18;;
63050;SDS011;49136;47.416;19.402;2022-10-19T08:38:35;10.10;;;5.53;;
63050;SDS011;49136;47.416;19.402;2022-10-19T08:41:12;7.28;;;4.75;;
63050;SDS011;49136;47.416;19.402;2022-10-19T08:49:34;7.28;;;4.70;;
63050;SDS011;49136;47.416;19.402;2022-10-19T08:52:01;7.72;;;4.38;;
63050;SDS011;49136;47.416;19.402;2022-10-19T08:54:40;7.80;;;4.10;;
63050;SDS011;49136;47.416;19.402;2022-10-19T08:57:14;13.77;;;3.83;;
63050;SDS011;49136;47.416;19.402;2022-10-19T09:06:13;5.97;;;3.22;;
63050;SDS011;49136;47.416;19.402;2022-10-19T09:08:25;6.80;;;3.83;;
63050;SDS011;49136;47.416;19.402;2022-10-19T09:10:52;6.50;;;3.45;;
63050;SDS011;49136;47.416;19.402;2022-10-19T09:18:20;3.92;;;2.72;;
63050;SDS011;49136;47.416;19.402;2022-10-19T09:20:49;6.07;;;3.20;;
63050;SDS011;49136;47.416;19.402;2022-10-19T09:26:02;7.13;;;4.00;;
63050;SDS011;49136;47.416;19.402;2022-10-19T09:31:24;4.35;;;3.00;;
63050;SDS011;49136;47.416;19.402;2022-10-19T09:33:58;6.78;;;3.17;;
63050;SDS011;49136;47.416;19.402;2022-10-19T09:36:48;6.18;;;3.65;;
63050;SDS011;49136;47.416;19.402;2022-10-19T09:39:16;5.57;;;3.55;;
63050;SDS011;49136;47.416;19.402;2022-10-19T09:44:25;7.28;;;3.10;;
63050;SDS011;49136;47.416;19.402;2022-10-19T09:46:56;4.97;;;2.97;;
63050;SDS011;49136;47.416;19.402;2022-10-19T09:50:04;6.03;;;3.67;;
63050;SDS011;49136;47.416;19.402;2022-10-19T09:57:47;5.82;;;2.60;;
63050;SDS011;49136;47.416;19.402;2022-10-19T10:00:25;7.65;;;2.88;;
63050;SDS011;49136;47.416;19.402;2022-10-19T10:02:56;7.03;;;2.97;;
63050;SDS011;49136;47.416;19.402;2022-10-19T10:05:28;4.10;;;3.03;;
63050;SDS011;49136;47.416;19.402;2022-10-19T10:07:57;3.40;;;2.75;;
63050;SDS011;49136;47.416;19.402;2022-10-19T10:10:24;4.82;;;2.83;;
63050;SDS011;49136;47.416;19.402;2022-10-19T10:12:53;6.07;;;3.00;;
63050;SDS011;49136;47.416;19.402;2022-10-19T10:15:26;3.25;;;2.53;;
63050;SDS011;49136;47.416;19.402;2022-10-19T10:17:54;7.32;;;3.55;;
63050;SDS011;49136;47.416;19.402;2022-10-19T10:20:25;3.95;;;2.80;;
63050;SDS011;49136;47.416;19.402;2022-10-19T10:23:00;7.43;;;3.10;;
63050;SDS011;49136;47.416;19.402;2022-10-19T10:25:29;7.50;;;3.25;;
63050;SDS011;49136;47.416;19.402;2022-10-19T10:28:04;7.20;;;3.75;;
63050;SDS011;49136;47.416;19.402;2022-10-19T10:30:43;6.75;;;3.55;;
63050;SDS011;49136;47.416;19.402;2022-10-19T10:33:16;7.40;;;3.22;;
63050;SDS011;49136;47.416;19.402;2022-10-19T10:35:50;7.10;;;3.50;;
63050;SDS011;49136;47.416;19.402;2022-10-19T10:38:26;6.47;;;3.40;;
63050;SDS011;49136;47.416;19.402;2022-10-19T10:40:58;6.22;;;3.35;;
63050;SDS011;49136;47.416;19.402;2022-10-19T10:43:28;5.95;;;2.78;;
63050;SDS011;49136;47.416;19.402;2022-10-19T10:45:59;15.57;;;4.03;;
63050;SDS011;49136;47.416;19.402;2022-10-19T10:48:36;9.38;;;3.80;;
63050;SDS011;49136;47.416;19.402;2022-10-19T10:51:07;5.90;;;3.67;;
63050;SDS011;49136;47.416;19.402;2022-10-19T10:53:45;21.50;;;4.55;;
63050;SDS011;49136;47.416;19.402;2022-10-19T10:56:27;6.82;;;3.50;;
63050;SDS011;49136;47.416;19.402;2022-10-19T11:01:26;8.85;;;3.88;;
63050;SDS011;49136;47.416;19.402;2022-10-19T11:04:20;4.72;;;3.50;;
63050;SDS011;49136;47.416;19.402;2022-10-19T11:06:54;4.60;;;3.53;;
63050;SDS011;49136;47.416;19.402;2022-10-19T11:09:28;7.35;;;4.13;;
63050;SDS011;49136;47.416;19.402;2022-10-19T11:11:59;9.25;;;5.10;;
63050;SDS011;49136;47.416;19.402;2022-10-19T11:14:29;5.90;;;4.25;;
63050;SDS011;49136;47.416;19.402;2022-10-19T11:17:03;8.65;;;4.18;;
63050;SDS011;49136;47.416;19.402;2022-10-19T11:24:33;6.72;;;3.80;;
63050;SDS011;49136;47.416;19.402;2022-10-19T11:32:25;9.43;;;3.72;;
63050;SDS011;49136;47.416;19.402;2022-10-19T11:37:59;5.80;;;3.45;;
63050;SDS011;49136;47.416;19.402;2022-10-19T11:40:34;6.68;;;3.60;;
63050;SDS011;49136;47.416;19.402;2022-10-19T11:53:54;7.80;;;2.33;;
63050;SDS011;49136;47.416;19.402;2022-10-19T11:56:33;11.13;;;2.67;;
63050;SDS011;49136;47.416;19.402;2022-10-19T11:59:14;2.90;;;1.90;;
63050;SDS011;49136;47.416;19.402;2022-10-19T12:04:40;1.27;;;0.98;;
63050;SDS011;49136;47.416;19.402;2022-10-19T12:13:04;2.92;;;1.20;;
63050;SDS011;49136;47.416;19.402;2022-10-19T12:15:43;1.38;;;1.00;;
63050;SDS011;49136;47.416;19.402;2022-10-19T12:18:15;2.50;;;1.27;;
63050;SDS011;49136;47.416;19.402;2022-10-19T12:20:54;2.33;;;1.20;;
63050;SDS011;49136;47.416;19.402;2022-10-19T12:23:27;2.20;;;1.38;;
63050;SDS011;49136;47.416;19.402;2022-10-19T12:25:57;2.25;;;1.40;;
63050;SDS011;49136;47.416;19.402;2022-10-19T12:28:35;2.20;;;1.25;;
63050;SDS011;49136;47.416;19.402;2022-10-19T12:31:04;3.20;;;1.10;;
63050;SDS011;49136;47.416;19.402;2022-10-19T12:39:01;1.42;;;1.00;;
63050;SDS011;49136;47.416;19.402;2022-10-19T12:41:38;1.75;;;0.98;;
63050;SDS011;49136;47.416;19.402;2022-10-19T12:47:21;1.73;;;1.23;;
63050;SDS011;49136;47.416;19.402;2022-10-19T12:49:52;1.23;;;0.88;;
63050;SDS011;49136;47.416;19.402;2022-10-19T12:55:10;2.03;;;1.17;;
63050;SDS011;49136;47.416;19.402;2022-10-19T12:57:38;2.13;;;1.30;;
63050;SDS011;49136;47.416;19.402;2022-10-19T13:00:27;2.28;;;1.48;;
63050;SDS011;49136;47.416;19.402;2022-10-19T13:03:02;1.43;;;0.93;;
63050;SDS011;49136;47.416;19.402;2022-10-19T13:05:31;3.70;;;1.30;;
63050;SDS011;49136;47.416;19.402;2022-10-19T13:07:59;1.52;;;1.02;;
63050;SDS011;49136;47.416;19.402;2022-10-19T13:10:27;2.17;;;1.15;;
63050;SDS011;49136;47.416;19.402;2022-10-19T13:12:54;1.75;;;1.25;;
63050;SDS011;49136;47.416;19.402;2022-10-19T13:18:00;1.42;;;1.05;;
63050;SDS011;49136;47.416;19.402;2022-10-19T13:25:32;2.00;;;1.20;;
63050;SDS011;49136;47.416;19.402;2022-10-19T13:41:03;1.50;;;1.20;;
63050;SDS011;49136;47.416;19.402;2022-10-19T13:43:48;1.23;;;0.80;;
63050;SDS011;49136;47.416;19.402;2022-10-19T14:11:16;2.08;;;1.40;;
63050;SDS011;49136;47.416;19.402;2022-10-19T14:13:45;1.00;;;0.93;;
63050;SDS011;49136;47.416;19.402;2022-10-19T14:16:30;2.20;;;1.10;;
63050;SDS011;49136;47.416;19.402;2022-10-19T14:18:56;2.28;;;1.10;;
63050;SDS011;49136;47.416;19.402;2022-10-19T14:21:28;5.70;;;1.33;;
63050;SDS011;49136;47.416;19.402;2022-10-19T14:23:55;2.47;;;1.40;;
63050;SDS011;49136;47.416;19.402;2022-10-19T14:26:22;4.10;;;1.25;;
63050;SDS011;49136;47.416;19.402;2022-10-19T14:28:53;8.20;;;1.40;;
63050;SDS011;49136;47.416;19.402;2022-10-19T14:31:22;4.60;;;1.42;;
63050;SDS011;49136;47.416;19.402;2022-10-19T14:33:50;1.58;;;1.23;;
63050;SDS011;49136;47.416;19.402;2022-10-19T14:36:17;12.48;;;2.67;;
63050;SDS011;49136;47.416;19.402;2022-10-19T14:38:45;2.92;;;1.50;;
63050;SDS011;49136;47.416;19.402;2022-10-19T14:43:53;2.08;;;1.42;;
63050;SDS011;49136;47.416;19.402;2022-10-19T14:46:20;4.72;;;1.90;;
63050;SDS011;49136;47.416;19.402;2022-10-19T14:48:46;4.70;;;1.40;;
63050;SDS011;49136;47.416;19.402;2022-10-19T14:56:49;2.67;;;1.67;;
63050;SDS011;49136;47.416;19.402;2022-10-19T15:02:03;3.05;;;1.65;;
63050;SDS011;49136;47.416;19.402;2022-10-19T15:04:38;1.83;;;1.40;;
63050;SDS011;49136;47.416;19.402;2022-10-19T15:07:04;2.88;;;1.95;;
63050;SDS011;49136;47.416;19.402;2022-10-19T15:09:41;2.50;;;1.75;;
63050;SDS011;49136;47.416;19.402;2022-10-19T15:12:16;5.30;;;2.33;;
63050;SDS011;49136;47.416;19.402;2022-10-19T15:14:43;4.53;;;1.93;;
63050;SDS011;49136;47.416;19.402;2022-10-19T15:19:50;5.30;;;2.35;;
63050;SDS011;49136;47.416;19.402;2022-10-19T15:27:30;5.05;;;1.98;;
63050;SDS011;49136;47.416;19.402;2022-10-19T15:30:05;2.80;;;1.77;;
63050;SDS011;49136;47.416;19.402;2022-10-19T15:32:49;4.07;;;1.90;;
63050;SDS011;49136;47.416;19.402;2022-10-19T15:35:18;5.03;;;2.83;;
63050;SDS011;49136;47.416;19.402;2022-10-19T15:40:32;3.50;;;1.75;;
63050;SDS011;49136;47.416;19.402;2022-10-19T15:43:00;5.35;;;2.28;;
63050;SDS011;49136;47.416;19.402;2022-10-19T15:45:45;7.32;;;1.98;;
63050;SDS011;49136;47.416;19.402;2022-10-19T15:50:51;3.92;;;2.22;;
63050;SDS011;49136;47.416;19.402;2022-10-19T15:53:18;3.72;;;2.10;;
63050;SDS011;49136;47.416;19.402;2022-10-19T15:55:44;2.90;;;2.03;;
63050;SDS011;49136;47.416;19.402;2022-10-19T15:58:10;5.18;;;2.40;;
63050;SDS011;49136;47.416;19.402;2022-10-19T16:00:37;4.10;;;1.83;;
63050;SDS011;49136;47.416;19.402;2022-10-19T16:03:03;3.20;;;1.58;;
63050;SDS011;49136;47.416;19.402;2022-10-19T16:05:28;5.05;;;2.08;;
63050;SDS011;49136;47.416;19.402;2022-10-19T16:07:54;3.47;;;1.83;;
63050;SDS011;49136;47.416;19.402;2022-10-19T16:10:21;4.35;;;2.20;;
63050;SDS011;49136;47.416;19.402;2022-10-19T16:12:49;7.60;;;2.78;;
63050;SDS011;49136;47.416;19.402;2022-10-19T16:15:15;6.68;;;3.35;;
63050;SDS011;49136;47.416;19.402;2022-10-19T16:20:12;10.95;;;3.30;;
63050;SDS011;49136;47.416;19.402;2022-10-19T16:22:38;10.52;;;4.63;;
63050;SDS011;49136;47.416;19.402;2022-10-19T16:25:03;7.97;;;3.53;;
63050;SDS011;49136;47.416;19.402;2022-10-19T16:27:29;8.00;;;3.13;;
63050;SDS011;49136;47.416;19.402;2022-10-19T16:29:54;5.38;;;2.72;;
63050;SDS011;49136;47.416;19.402;2022-10-19T16:32:20;8.65;;;4.15;;
63050;SDS011;49136;47.416;19.402;2022-10-19T16:34:45;9.63;;;3.60;;
63050;SDS011;49136;47.416;19.402;2022-10-19T16:37:10;10.65;;;3.17;;
63050;SDS011;49136;47.416;19.402;2022-10-19T16:39:36;10.40;;;3.30;;
63050;SDS011;49136;47.416;19.402;2022-10-19T16:42:01;8.00;;;3.38;;
63050;SDS011;49136;47.416;19.402;2022-10-19T16:44:27;7.38;;;3.40;;
63050;SDS011;49136;47.416;19.402;2022-10-19T16:46:54;8.48;;;3.85;;
63050;SDS011;49136;47.416;19.402;2022-10-19T16:49:20;8.73;;;3.47;;
63050;SDS011;49136;47.416;19.402;2022-10-19T16:51:46;11.15;;;4.95;;
63050;SDS011;49136;47.416;19.402;2022-10-19T16:54:11;10.55;;;5.35;;
63050;SDS011;49136;47.416;19.402;2022-10-19T16:56:41;11.73;;;5.70;;
63050;SDS011;49136;47.416;19.402;2022-10-19T17:01:35;6.97;;;3.85;;
63050;SDS011;49136;47.416;19.402;2022-10-19T17:04:00;7.72;;;3.63;;
63050;SDS011;49136;47.416;19.402;2022-10-19T17:06:26;11.15;;;4.50;;
63050;SDS011;49136;47.416;19.402;2022-10-19T17:08:53;11.45;;;5.53;;
63050;SDS011;49136;47.416;19.402;2022-10-19T17:11:23;16.58;;;5.60;;
63050;SDS011;49136;47.416;19.402;2022-10-19T17:13:51;19.77;;;11.07;;
63050;SDS011;49136;47.416;19.402;2022-10-19T17:16:18;12.63;;;5.93;;
63050;SDS011;49136;47.416;19.402;2022-10-19T17:18:45;8.82;;;5.07;;
63050;SDS011;49136;47.416;19.402;2022-10-19T17:21:11;9.00;;;4.50;;
63050;SDS011;49136;47.416;19.402;2022-10-19T17:23:38;10.98;;;5.32;;
63050;SDS011;49136;47.416;19.402;2022-10-19T17:26:05;8.82;;;4.20;;
63050;SDS011;49136;47.416;19.402;2022-10-19T17:28:31;9.00;;;4.95;;
63050;SDS011;49136;47.416;19.402;2022-10-19T17:31:01;8.50;;;4.47;;
63050;SDS011;49136;47.416;19.402;2022-10-19T17:33:31;10.07;;;4.82;;
63050;SDS011;49136;47.416;19.402;2022-10-19T17:36:08;12.40;;;5.03;;
63050;SDS011;49136;47.416;19.402;2022-10-19T17:38:38;10.00;;;5.30;;
63050;SDS011;49136;47.416;19.402;2022-10-19T17:41:08;21.00;;;6.53;;
63050;SDS011;49136;47.416;19.402;2022-10-19T17:43:36;17.08;;;7.32;;